Time;durP1;ratioP1;P1;durP2;ratioP2;P2;SDS_P1;SDS_P2;PMS_P1;PMS_P2;Temp;Humidity;BMP_temperature;BMP_pressure;BME280_temperature;BME280_humidity;BME280_pressure;Samples;Min_cycle;Max_cycle;Signal;HPM_P1;HPM_P2
2022/05/07 00:00:43;;;;;;;1.52;1.15;;;17.80;45.40;20.00;94354.00;;;;10483737;28;45162;-66
2022/05/07 00:06:04;;;;;;;1.77;1.30;;;17.80;45.40;20.00;94364.00;;;;10483344;28;45750;-66
2022/05/07 00:11:24;;;;;;;1.15;0.90;;;17.80;45.40;20.00;94365.00;;;;10483194;28;45140;-67
2022/05/07 00:22:25;;;;;;;1.00;0.90;;;17.70;45.40;19.90;94349.00;;;;10482689;28;45684;-67
2022/05/07 00:27:45;;;;;;;1.20;1.10;;;17.70;45.40;19.90;94355.00;;;;10482648;28;45143;-67
2022/05/07 00:33:07;;;;;;;1.05;0.93;;;17.70;45.40;19.90;94351.00;;;;10481817;28;45284;-66
2022/05/07 00:38:28;;;;;;;1.88;1.10;;;17.70;45.40;19.90;94330.00;;;;10482117;28;45270;-67
2022/05/07 00:43:48;;;;;;;1.23;1.00;;;17.70;45.40;19.90;94336.00;;;;10482389;28;45177;-66
2022/05/07 00:49:10;;;;;;;1.45;1.10;;;17.70;45.40;19.90;94327.00;;;;10481765;28;45277;-66
2022/05/07 00:54:31;;;;;;;1.05;0.95;;;17.60;45.40;19.80;94336.00;;;;10481828;28;45311;-66
2022/05/07 00:59:51;;;;;;;1.10;0.98;;;17.60;45.40;19.80;94320.00;;;;10478888;28;45154;-67
2022/05/07 01:05:13;;;;;;;1.52;0.90;;;17.60;45.40;19.80;94323.00;;;;10477750;28;45768;-67
2022/05/07 01:10:34;;;;;;;1.13;1.00;;;17.60;45.40;19.80;94328.00;;;;10481306;28;45192;-66
2022/05/07 01:15:57;;;;;;;1.00;0.90;;;17.60;45.40;19.80;94328.00;;;;10480921;28;45252;-66
2022/05/07 01:21:19;;;;;;;1.33;0.90;;;17.60;45.40;19.80;94316.00;;;;10480979;28;45228;-67
2022/05/07 01:26:40;;;;;;;1.23;1.00;;;17.60;45.30;19.80;94320.00;;;;10480292;28;45755;-66
2022/05/07 01:32:01;;;;;;;1.58;1.00;;;17.60;45.40;19.80;94323.00;;;;10480051;28;45177;-67
2022/05/07 01:37:23;;;;;;;0.98;0.80;;;17.60;45.40;19.70;94312.00;;;;10480297;28;45219;-68
2022/05/07 01:42:44;;;;;;;1.02;0.85;;;17.60;45.30;19.70;94309.00;;;;10480495;28;45102;-67
2022/05/07 01:48:11;;;;;;;0.98;0.80;;;17.60;45.30;19.70;94302.00;;;;10479943;28;45100;-66
2022/05/07 01:53:33;;;;;;;1.15;0.90;;;17.50;45.30;19.70;94309.00;;;;10480227;28;45293;-66
2022/05/07 01:58:54;;;;;;;0.90;0.70;;;17.60;45.30;19.70;94310.00;;;;10479643;28;45688;-67
2022/05/07 02:04:15;;;;;;;0.70;0.70;;;17.60;45.30;19.70;94294.00;;;;10479589;28;45103;-67
2022/05/07 02:09:36;;;;;;;1.13;0.90;;;17.50;45.20;19.70;94299.00;;;;10479271;28;45162;-67
2022/05/07 02:14:57;;;;;;;1.13;1.02;;;17.50;45.20;19.70;94290.00;;;;10478337;28;45825;-67
2022/05/07 02:20:17;;;;;;;1.25;0.90;;;17.50;45.20;19.60;94295.00;;;;10479148;28;45254;-67
2022/05/07 02:25:39;;;;;;;0.80;0.80;;;17.50;45.30;19.70;94288.00;;;;10478285;28;45137;-66
2022/05/07 02:31:00;;;;;;;0.95;0.88;;;17.50;45.20;19.70;94293.00;;;;10478752;28;45978;-66
2022/05/07 02:36:20;;;;;;;1.13;0.98;;;17.50;45.20;19.60;94283.00;;;;10478682;28;45182;-66
2022/05/07 02:47:20;;;;;;;1.67;0.70;;;17.50;45.20;19.60;94287.00;;;;10478686;28;45332;-67
2022/05/07 02:52:42;;;;;;;1.20;1.00;;;17.50;45.20;19.60;94282.00;;;;10478278;28;45222;-67
2022/05/07 02:58:06;;;;;;;0.88;0.80;;;17.40;45.20;19.60;94272.00;;;;10478056;28;45180;-67
2022/05/07 03:03:27;;;;;;;0.80;0.80;;;17.40;45.20;19.60;94289.00;;;;10477833;28;45712;-67
2022/05/07 03:08:48;;;;;;;1.45;0.85;;;17.40;45.20;19.60;94281.00;;;;10477490;28;45774;-67
2022/05/07 03:14:10;;;;;;;1.13;0.98;;;17.40;45.20;19.60;94265.00;;;;10477685;28;45191;-68
2022/05/07 03:19:30;;;;;;;1.05;0.77;;;17.40;45.20;19.60;94283.00;;;;10477497;28;45230;-67
2022/05/07 03:24:50;;;;;;;1.10;0.80;;;17.40;45.10;19.60;94285.00;;;;10477706;28;45375;-67
2022/05/07 03:30:13;;;;;;;1.00;0.80;;;17.40;45.10;19.50;94268.00;;;;10484292;28;45186;-68
2022/05/07 03:35:34;;;;;;;1.17;0.80;;;17.40;45.10;19.50;94271.00;;;;10483972;28;45780;-67
2022/05/07 03:40:55;;;;;;;0.93;0.90;;;17.40;45.10;19.50;94290.00;;;;10484238;28;45149;-67
2022/05/07 03:46:17;;;;;;;0.70;0.70;;;17.40;45.10;19.50;94282.00;;;;10483948;28;45676;-67
2022/05/07 03:57:13;;;;;;;0.60;0.60;;;17.40;45.10;19.50;94288.00;;;;10483455;28;45163;-67
2022/05/07 04:02:35;;;;;;;1.08;0.88;;;17.30;45.00;19.50;94281.00;;;;10483716;28;45090;-67
2022/05/07 04:07:55;;;;;;;1.60;0.65;;;17.30;45.00;19.60;94282.00;;;;10483720;28;45181;-67
2022/05/07 04:13:16;;;;;;;0.77;0.70;;;17.40;45.70;19.70;94275.00;;;;10483021;28;46042;-67
2022/05/07 04:18:38;;;;;;;0.70;0.65;;;17.50;44.80;19.70;94278.00;;;;10482934;28;45132;-67
2022/05/07 04:23:58;;;;;;;0.95;0.70;;;17.60;44.70;19.80;94292.00;;;;10483050;28;45490;-67
2022/05/07 04:29:19;;;;;;;1.45;0.75;;;17.70;44.60;19.80;94293.00;;;;10482279;28;45772;-67
2022/05/07 04:34:41;;;;;;;0.80;0.80;;;17.70;44.40;19.90;94294.00;;;;10482056;28;45297;-67
2022/05/07 04:40:01;;;;;;;1.15;0.60;;;17.80;44.40;19.90;94292.00;;;;10481526;28;45180;-67
2022/05/07 04:45:21;;;;;;;0.77;0.60;;;17.90;44.30;20.00;94286.00;;;;10481635;28;45207;-69
2022/05/07 04:50:43;;;;;;;1.25;0.52;;;17.90;44.10;20.00;94294.00;;;;10482044;28;45743;-67
2022/05/07 04:56:05;;;;;;;0.95;0.60;;;18.00;44.10;20.10;94299.00;;;;10481473;28;45162;-67
2022/05/07 05:01:25;;;;;;;0.60;0.60;;;18.00;44.00;20.10;94304.00;;;;10481235;28;45357;-67
2022/05/07 05:06:47;;;;;;;0.60;0.60;;;18.00;43.80;20.10;94300.00;;;;10481537;28;45764;-67
2022/05/07 05:12:09;;;;;;;1.50;0.60;;;18.10;43.80;20.20;94290.00;;;;10480876;28;45275;-67
2022/05/07 05:17:30;;;;;;;0.95;0.60;;;18.10;43.70;20.20;94318.00;;;;10480602;28;45184;-67
2022/05/07 05:22:52;;;;;;;0.65;0.40;;;18.10;43.50;20.30;94314.00;;;;10480926;28;45202;-66
2022/05/07 05:28:13;;;;;;;1.98;0.60;;;18.20;43.50;20.30;94307.00;;;;10480545;28;45251;-67
2022/05/07 05:33:33;;;;;;;1.15;0.60;;;18.20;43.40;20.30;94322.00;;;;10534531;22;45195;-64
2022/05/07 05:38:55;;;;;;;1.00;0.60;;;18.20;43.30;20.30;94305.00;;;;10525620;28;45205;-63
2022/05/07 05:44:16;;;;;;;2.85;0.90;;;18.30;43.30;20.40;94320.00;;;;10507012;28;45770;-63
2022/05/07 05:49:37;;;;;;;3.70;1.10;;;18.30;43.30;20.40;94331.00;;;;10484116;28;45103;-64
2022/05/07 05:54:59;;;;;;;4.00;1.35;;;18.30;43.10;20.40;94323.00;;;;10482070;28;45687;-63
2022/05/07 06:00:20;;;;;;;4.40;1.33;;;18.30;43.00;20.40;94308.00;;;;10466844;28;45111;-63
2022/05/07 06:05:42;;;;;;;7.85;1.55;;;18.40;43.00;20.50;94335.00;;;;10443471;28;45165;-64
2022/05/07 06:11:04;;;;;;;2.90;1.35;;;18.40;43.00;20.50;94326.00;;;;10441252;28;45217;-64
2022/05/07 06:16:24;;;;;;;4.80;1.50;;;18.40;42.80;20.50;94334.00;;;;10438795;28;45113;-63
2022/05/07 06:21:45;;;;;;;7.45;1.40;;;18.40;42.80;20.50;94331.00;;;;10441631;28;45286;-64
2022/05/07 06:32:46;;;;;;;7.20;1.80;;;18.40;42.70;20.60;94318.00;;;;10458492;28;45263;-63
2022/05/07 06:38:09;;;;;;;5.28;1.73;;;18.50;42.60;20.60;94323.00;;;;10480245;28;45778;-62
2022/05/07 06:43:31;;;;;;;6.82;1.50;;;18.50;42.60;20.60;94323.00;;;;10458013;28;45349;-62
2022/05/07 06:48:52;;;;;;;8.45;1.63;;;18.50;43.30;20.60;94322.00;;;;10447430;28;45281;-64
2022/05/07 06:54:12;;;;;;;6.40;1.63;;;18.50;42.60;20.60;94304.00;;;;10482118;28;45162;-62
2022/05/07 06:59:34;;;;;;;3.58;1.20;;;18.50;42.60;20.60;94319.00;;;;10481158;28;45331;-62
2022/05/07 07:04:56;;;;;;;3.72;1.60;;;18.50;42.50;20.60;94320.00;;;;10476643;28;45174;-62
2022/05/07 07:10:17;;;;;;;3.30;1.08;;;18.50;42.50;20.60;94322.00;;;;10445024;28;45133;-62
2022/05/07 07:15:40;;;;;;;2.78;0.95;;;18.50;42.40;20.60;94315.00;;;;10445211;28;45787;-64
2022/05/07 07:21:00;;;;;;;3.58;1.13;;;18.60;42.50;20.70;94326.00;;;;10444210;28;45247;-63
2022/05/07 07:26:21;;;;;;;4.10;1.00;;;18.50;42.40;20.70;94326.00;;;;10442260;28;45116;-62
2022/05/07 07:31:42;;;;;;;2.85;0.90;;;18.50;42.40;20.70;94326.00;;;;10446808;28;45870;-64
2022/05/07 07:37:03;;;;;;;2.80;1.00;;;18.50;42.40;20.70;94319.00;;;;10485027;28;45180;-62
2022/05/07 07:42:24;;;;;;;3.00;1.02;;;18.60;42.40;20.70;94330.00;;;;10483586;28;45170;-63
2022/05/07 07:47:59;;;;;;;1.98;0.90;;;18.60;42.40;20.70;94328.00;;;;10484060;28;45151;-64
2022/05/07 07:53:22;;;;;;;3.30;0.80;;;18.60;42.60;20.70;94328.00;;;;10484444;28;45181;-62
2022/05/07 07:58:43;;;;;;;1.60;0.88;;;18.60;42.50;20.70;94339.00;;;;10445510;28;45178;-63
2022/05/07 08:04:05;;;;;;;3.28;1.10;;;18.60;42.50;20.70;94330.00;;;;10447168;28;45238;-63
2022/05/07 08:15:05;;;;;;;1.20;0.80;;;18.60;42.60;20.70;94341.00;;;;10441963;28;45430;-63
2022/05/07 08:20:27;;;;;;;2.05;0.93;;;18.60;42.60;20.70;94354.00;;;;10451714;28;45983;-63
2022/05/07 08:25:49;;;;;;;1.80;0.90;;;18.60;42.60;20.70;94340.00;;;;10440097;28;45224;-63
2022/05/07 08:31:11;;;;;;;1.40;0.88;;;18.60;42.60;20.70;94345.00;;;;10440244;28;45775;-63
2022/05/07 08:36:33;;;;;;;1.75;1.00;;;18.60;42.70;20.70;94349.00;;;;10439188;28;45168;-64
2022/05/07 08:41:53;;;;;;;1.90;0.90;;;18.60;42.60;20.80;94333.00;;;;10439813;28;45772;-62
2022/05/07 08:47:14;;;;;;;1.70;0.88;;;18.70;42.70;20.80;94324.00;;;;10460431;28;45280;-63
2022/05/07 08:52:41;;;;;;;1.60;0.90;;;18.70;42.70;20.80;94330.00;;;;10439623;28;45767;-64
2022/05/07 08:58:01;;;;;;;2.13;1.00;;;18.70;42.80;20.80;94335.00;;;;10439902;28;45189;-63
2022/05/07 09:03:22;;;;;;;1.35;0.90;;;18.70;42.70;20.80;94337.00;;;;10439594;28;45111;-63
2022/05/07 09:08:46;;;;;;;1.77;0.80;;;18.70;42.60;20.80;94342.00;;;;10439288;28;45134;-62
2022/05/07 09:14:06;;;;;;;2.17;0.80;;;18.70;42.60;20.80;94338.00;;;;10439279;28;45158;-63
2022/05/07 09:19:29;;;;;;;1.52;0.80;;;18.70;42.50;20.80;94329.00;;;;10439151;28;45668;-62
2022/05/07 09:24:56;;;;;;;2.35;0.88;;;18.70;42.50;20.90;94334.00;;;;10438787;28;45058;-62
2022/05/07 09:30:23;;;;;;;2.55;0.88;;;18.80;42.50;20.90;94327.00;;;;10438619;28;45715;-63
2022/05/07 09:35:53;;;;;;;1.05;0.75;;;18.80;42.50;20.90;94330.00;;;;10437730;28;45300;-64
2022/05/07 09:41:22;;;;;;;1.58;0.80;;;18.70;42.30;20.90;94312.00;;;;10437943;28;45756;-63
2022/05/07 09:46:42;;;;;;;1.55;0.93;;;18.70;42.30;20.90;94314.00;;;;10439533;28;45295;-63
2022/05/07 09:52:05;;;;;;;1.52;0.93;;;18.70;42.30;20.90;94317.00;;;;10437770;28;45682;-63
2022/05/07 09:57:33;;;;;;;2.42;0.85;;;18.70;42.30;20.90;94318.00;;;;10442345;28;45743;-63
2022/05/07 10:03:09;;;;;;;1.67;0.70;;;18.70;42.30;20.90;94316.00;;;;10478850;28;45120;-64
2022/05/07 10:08:42;;;;;;;1.50;0.70;;;18.70;42.30;20.80;94326.00;;;;10479274;28;45395;-62
2022/05/07 10:14:04;;;;;;;1.17;0.80;;;18.80;42.30;20.90;94314.00;;;;10456455;28;45099;-63
2022/05/07 10:19:35;;;;;;;0.82;0.70;;;18.80;42.20;20.90;94310.00;;;;10437135;28;45261;-62
2022/05/07 10:25:06;;;;;;;1.10;0.70;;;18.80;42.20;20.90;94300.00;;;;10437143;28;45255;-63
2022/05/07 10:30:28;;;;;;;1.27;0.80;;;18.70;42.20;20.90;94316.00;;;;10436737;28;45156;-62
2022/05/07 10:35:53;;;;;;;1.02;0.80;;;18.80;42.20;20.90;94301.00;;;;10435535;28;45252;-62
2022/05/07 10:41:23;;;;;;;1.40;0.80;;;18.80;42.20;20.90;94307.00;;;;10436758;28;45125;-62
2022/05/07 10:46:45;;;;;;;1.35;0.80;;;18.80;42.20;20.90;94285.00;;;;10436402;28;45101;-62
2022/05/07 10:52:07;;;;;;;1.35;0.80;;;18.80;42.10;20.90;94296.00;;;;10467431;28;45681;-63
2022/05/07 10:57:38;;;;;;;1.25;0.75;;;18.80;42.10;20.90;94296.00;;;;10474774;28;45191;-63
2022/05/07 11:03:00;;;;;;;1.20;0.82;;;18.80;42.10;20.90;94297.00;;;;10477844;28;45188;-62
2022/05/07 11:08:20;;;;;;;1.30;0.80;;;18.80;42.10;20.90;94298.00;;;;10476987;28;45185;-63
2022/05/07 11:13:52;;;;;;;1.90;0.98;;;18.80;42.10;20.90;94285.00;;;;10477368;28;45108;-63
2022/05/07 11:19:25;;;;;;;1.60;0.90;;;18.80;42.10;20.90;94257.00;;;;10473975;28;45182;-62
2022/05/07 11:24:47;;;;;;;1.08;0.88;;;18.80;42.10;20.90;94264.00;;;;10475181;28;45405;-63
2022/05/07 11:30:11;;;;;;;1.65;0.60;;;18.80;42.00;20.90;94280.00;;;;10476386;28;45390;-64
2022/05/07 11:35:33;;;;;;;1.27;0.90;;;18.80;42.10;20.90;94265.00;;;;10514943;22;45383;-64
2022/05/07 11:40:54;;;;;;;0.95;0.80;;;18.80;42.10;20.90;94271.00;;;;10437109;28;45455;-63
2022/05/07 11:46:14;;;;;;;1.35;0.90;;;18.80;42.00;20.90;94265.00;;;;10476499;28;45145;-65
2022/05/07 11:51:36;;;;;;;2.40;0.90;;;18.80;42.00;20.90;94251.00;;;;10483959;28;45108;-64
2022/05/07 11:56:59;;;;;;;1.63;1.00;;;18.80;42.00;21.00;94264.00;;;;10482428;28;45276;-65
2022/05/07 12:02:19;;;;;;;1.58;1.27;;;18.80;42.00;20.90;94261.00;;;;10482601;28;45906;-64
2022/05/07 12:07:42;;;;;;;1.02;0.88;;;18.80;42.00;20.90;94264.00;;;;10482104;28;45210;-64
2022/05/07 12:13:02;;;;;;;1.35;1.00;;;18.80;42.00;21.00;94247.00;;;;10476042;28;45887;-64
2022/05/07 12:18:24;;;;;;;1.75;1.05;;;18.80;42.00;21.00;94239.00;;;;10482596;28;45107;-64
2022/05/07 12:35:04;;;;;;;0.93;0.80;;;18.90;42.00;21.00;94241.00;;;;10481658;28;45909;-64
2022/05/07 12:40:26;;;;;;;1.63;0.90;;;18.80;42.00;21.00;94238.00;;;;10480284;28;45300;-63
2022/05/07 12:45:49;;;;;;;1.33;0.93;;;18.80;42.00;21.00;94241.00;;;;10481261;28;45738;-64
2022/05/07 12:51:09;;;;;;;1.08;0.80;;;18.80;41.90;21.00;94218.00;;;;10481061;28;45188;-63
2022/05/07 12:56:31;;;;;;;0.93;0.82;;;18.90;41.90;21.00;94221.00;;;;10479550;28;45883;-63
2022/05/07 13:01:52;;;;;;;1.00;0.90;;;19.00;42.00;21.00;94215.00;;;;10481117;28;45159;-63
2022/05/07 13:07:12;;;;;;;0.93;0.85;;;18.90;41.90;21.00;94205.00;;;;10480572;28;45867;-63
2022/05/07 13:12:35;;;;;;;1.48;1.08;;;18.90;41.90;21.00;94218.00;;;;10481154;28;45108;-64
2022/05/07 13:17:56;;;;;;;1.15;0.77;;;18.90;42.00;21.00;94215.00;;;;10480094;28;45217;-63
2022/05/07 13:23:17;;;;;;;1.00;0.90;;;18.90;41.90;21.00;94196.00;;;;10479902;28;45793;-63
2022/05/07 13:28:39;;;;;;;1.13;0.95;;;18.90;42.00;21.00;94207.00;;;;10479658;28;45214;-65
2022/05/07 13:33:59;;;;;;;1.00;0.88;;;18.90;42.00;21.00;94207.00;;;;10479030;28;45228;-63
2022/05/07 13:39:20;;;;;;;1.27;0.85;;;18.90;42.00;21.00;94203.00;;;;10480319;28;45860;-65
2022/05/07 13:44:41;;;;;;;2.15;1.30;;;18.90;41.90;21.10;94196.00;;;;10479775;28;45154;-64
2022/05/07 13:50:04;;;;;;;1.20;1.00;;;18.90;41.90;21.10;94202.00;;;;10479081;28;45147;-64
2022/05/07 13:55:25;;;;;;;1.35;0.90;;;18.90;41.90;21.10;94194.00;;;;10478732;28;45254;-66
2022/05/07 14:00:47;;;;;;;0.98;0.85;;;18.90;41.90;21.10;94188.00;;;;10478613;28;45866;-64
2022/05/07 14:06:08;;;;;;;2.42;0.90;;;18.90;41.90;21.10;94184.00;;;;10478489;28;45201;-64
2022/05/07 14:11:29;;;;;;;1.55;0.95;;;18.90;41.90;21.10;94165.00;;;;10477672;28;45370;-63
2022/05/07 14:16:51;;;;;;;2.03;1.00;;;18.90;41.80;21.10;94172.00;;;;10477765;28;45774;-64
2022/05/07 14:22:12;;;;;;;1.85;1.00;;;19.00;41.90;21.10;94155.00;;;;10478105;28;45711;-66
2022/05/07 14:27:33;;;;;;;1.80;1.05;;;19.00;41.80;21.10;94163.00;;;;10477870;28;45129;-65
2022/05/07 14:32:55;;;;;;;1.30;1.00;;;19.00;41.80;21.10;94157.00;;;;10476919;28;45751;-66
2022/05/07 14:38:15;;;;;;;1.50;1.00;;;18.90;41.80;21.10;94154.00;;;;10477285;28;45138;-65
2022/05/07 14:43:38;;;;;;;1.58;1.10;;;18.90;41.80;21.10;94147.00;;;;10477047;28;45138;-66
2022/05/07 14:49:00;;;;;;;2.22;1.00;;;19.00;41.80;21.10;94156.00;;;;10476682;28;45728;-65
2022/05/07 14:54:21;;;;;;;1.48;0.90;;;19.00;41.80;21.10;94148.00;;;;10477120;28;45172;-65
2022/05/07 14:59:41;;;;;;;1.45;0.90;;;19.00;41.80;21.10;94144.00;;;;10476109;28;45371;-67
2022/05/07 15:05:04;;;;;;;1.20;0.98;;;19.00;41.90;21.10;94148.00;;;;10478111;28;45804;-65
2022/05/07 15:10:37;;;;;;;1.35;0.88;;;19.00;41.80;21.10;94142.00;;;;10476282;28;45179;-66
2022/05/07 15:15:58;;;;;;;1.90;0.90;;;18.90;41.90;21.10;94134.00;;;;10466213;28;45225;-65
2022/05/07 15:21:20;;;;;;;1.15;1.00;;;19.00;41.90;21.10;94132.00;;;;10441872;28;45524;-65
2022/05/07 15:26:40;;;;;;;1.52;0.95;;;19.00;41.90;21.10;94116.00;;;;10441810;28;45167;-65
2022/05/07 15:37:40;;;;;;;3.45;1.20;;;19.00;42.20;20.90;94127.00;;;;10441512;28;45236;-65
2022/05/07 15:43:01;;;;;;;3.13;1.25;;;18.80;42.90;20.90;94137.00;;;;10441319;28;45208;-65
2022/05/07 15:48:21;;;;;;;2.90;1.38;;;18.80;43.10;20.90;94147.00;;;;10441216;28;45757;-67
2022/05/07 15:53:44;;;;;;;2.00;1.23;;;18.70;43.20;20.80;94134.00;;;;10463259;28;45361;-65
2022/05/07 15:59:04;;;;;;;1.63;1.27;;;18.70;43.30;20.80;94140.00;;;;10457598;28;45200;-65
2022/05/07 16:04:27;;;;;;;1.92;1.30;;;18.70;43.30;20.80;94140.00;;;;10440651;28;45121;-65
2022/05/07 16:09:49;;;;;;;4.90;2.03;;;18.70;43.40;20.80;94144.00;;;;10440365;28;45243;-65
2022/05/07 16:15:11;;;;;;;1.40;1.25;;;18.60;43.50;20.80;94158.00;;;;10440012;28;45689;-65
2022/05/07 16:20:32;;;;;;;3.90;1.40;;;18.60;43.40;20.80;94160.00;;;;10440825;28;45697;-65
2022/05/07 16:25:54;;;;;;;2.83;1.40;;;18.70;43.50;20.80;94186.00;;;;10480776;28;45514;-65
2022/05/07 16:31:15;;;;;;;2.63;1.45;;;18.60;43.50;20.70;94183.00;;;;10482493;28;45186;-65
2022/05/07 16:36:36;;;;;;;3.47;1.35;;;18.60;43.60;20.70;94190.00;;;;10480584;28;45734;-65
2022/05/07 16:41:58;;;;;;;2.70;1.30;;;18.60;43.70;20.70;94199.00;;;;10482661;28;45184;-66
2022/05/07 16:47:18;;;;;;;2.50;1.45;;;18.60;44.00;20.70;94200.00;;;;10481877;28;45746;-65
2022/05/07 16:52:41;;;;;;;2.40;1.27;;;18.60;43.90;20.70;94201.00;;;;10481907;28;45207;-65
2022/05/07 16:58:03;;;;;;;2.30;1.65;;;18.60;43.90;20.70;94208.00;;;;10481659;28;45148;-64
2022/05/07 17:03:25;;;;;;;2.65;1.60;;;18.60;43.90;20.70;94210.00;;;;10481756;28;45160;-65
2022/05/07 17:08:46;;;;;;;2.10;1.35;;;18.60;43.90;20.70;94214.00;;;;10476614;28;45143;-67
2022/05/07 17:14:08;;;;;;;3.13;1.30;;;18.60;43.90;20.70;94213.00;;;;10480168;28;45115;-66
2022/05/07 17:19:29;;;;;;;5.00;1.55;;;18.60;44.00;20.70;94215.00;;;;10480853;28;45894;-66
2022/05/07 17:24:50;;;;;;;2.40;1.52;;;18.60;44.00;20.70;94214.00;;;;10480450;28;45683;-66
2022/05/07 17:30:13;;;;;;;2.10;1.40;;;18.60;44.00;20.70;94213.00;;;;10480384;28;45226;-66
2022/05/07 17:35:33;;;;;;;2.00;1.40;;;18.60;44.00;20.70;94214.00;;;;10480258;28;45804;-66
2022/05/07 17:40:54;;;;;;;2.50;1.50;;;18.50;44.00;20.70;94214.00;;;;10480496;28;45172;-66
2022/05/07 17:46:16;;;;;;;2.67;1.70;;;18.60;44.00;20.70;94221.00;;;;10479843;28;45838;-66
2022/05/07 17:51:37;;;;;;;4.90;1.50;;;18.60;44.10;20.70;94224.00;;;;10479943;28;45100;-66
2022/05/07 17:56:57;;;;;;;2.50;1.63;;;18.50;44.00;20.70;94226.00;;;;10479274;28;45830;-66
2022/05/07 18:02:20;;;;;;;1.85;1.33;;;18.60;44.10;20.70;94220.00;;;;10476736;28;45322;-66
2022/05/07 18:07:40;;;;;;;2.45;1.50;;;18.50;44.10;20.70;94234.00;;;;10437713;28;45238;-67
2022/05/07 18:13:01;;;;;;;1.92;1.60;;;18.50;44.10;20.70;94239.00;;;;10437267;28;45148;-66
2022/05/07 18:18:23;;;;;;;2.95;1.60;;;18.50;44.10;20.60;94237.00;;;;10437449;28;45260;-68
2022/05/07 18:23:44;;;;;;;2.67;1.70;;;18.50;44.10;20.60;94235.00;;;;10437372;28;45304;-66
2022/05/07 18:29:06;;;;;;;2.05;1.42;;;18.50;44.10;20.60;94246.00;;;;10437073;28;45856;-66
2022/05/07 18:34:28;;;;;;;2.95;1.50;;;18.50;44.20;20.60;94260.00;;;;10436096;28;45311;-66
2022/05/07 18:45:27;;;;;;;2.75;1.40;;;18.50;44.20;20.60;94250.00;;;;10436489;28;45123;-66
2022/05/07 18:50:49;;;;;;;1.77;1.50;;;18.50;44.20;20.60;94257.00;;;;10436522;28;45093;-66
2022/05/07 19:01:48;;;;;;;2.85;1.50;;;18.50;44.20;20.60;94271.00;;;;10444056;28;45185;-66
2022/05/07 19:07:10;;;;;;;2.85;1.70;;;18.50;44.20;20.60;94270.00;;;;10443267;28;45134;-66
2022/05/07 19:12:30;;;;;;;2.95;1.80;;;18.50;44.20;20.60;94256.00;;;;10443275;28;45148;-65
2022/05/07 19:17:51;;;;;;;2.13;1.60;;;18.50;44.20;20.60;94261.00;;;;10443304;28;45368;-66
2022/05/07 19:23:13;;;;;;;2.28;1.58;;;18.50;44.20;20.60;94260.00;;;;10442805;28;45700;-66
2022/05/07 19:28:36;;;;;;;2.17;1.55;;;18.50;44.20;20.60;94274.00;;;;10442740;28;45665;-66
2022/05/07 19:33:58;;;;;;;3.17;1.60;;;18.50;44.20;20.60;94270.00;;;;10441843;28;45122;-66
2022/05/07 19:39:19;;;;;;;2.75;1.80;;;18.50;44.20;20.60;94290.00;;;;10442031;28;45167;-66
2022/05/07 19:44:40;;;;;;;3.85;1.60;;;18.50;44.20;20.60;94265.00;;;;10442226;28;45268;-66
2022/05/07 19:50:01;;;;;;;2.40;1.77;;;18.50;44.20;20.60;94276.00;;;;10442122;28;45324;-66
2022/05/07 19:55:23;;;;;;;2.80;1.80;;;18.50;44.30;20.60;94273.00;;;;10441877;28;45146;-67
2022/05/07 20:00:44;;;;;;;2.60;1.75;;;18.50;44.90;20.60;94278.00;;;;10441841;28;45187;-66
2022/05/07 20:06:05;;;;;;;1.80;1.33;;;18.50;44.30;20.60;94288.00;;;;10441483;28;45871;-66
2022/05/07 20:11:27;;;;;;;2.08;1.58;;;18.50;44.20;20.60;94294.00;;;;10441732;28;45277;-66
2022/05/07 20:16:48;;;;;;;2.08;1.50;;;18.50;44.20;20.60;94289.00;;;;10441121;28;45338;-66
2022/05/07 20:22:10;;;;;;;2.67;1.63;;;18.50;44.30;20.60;94293.00;;;;10440909;28;45153;-66
2022/05/07 20:27:34;;;;;;;2.15;1.50;;;18.50;44.30;20.60;94286.00;;;;10440317;28;45872;-66
2022/05/07 20:32:55;;;;;;;2.25;1.63;;;18.40;44.30;20.60;94302.00;;;;10440324;28;45293;-67
2022/05/07 20:38:15;;;;;;;2.28;1.67;;;18.40;44.90;20.60;94292.00;;;;10440261;28;45144;-66
2022/05/07 20:49:16;;;;;;;2.45;1.50;;;18.40;44.30;20.50;94305.00;;;;10435654;28;45747;-66
2022/05/07 20:54:36;;;;;;;2.40;1.50;;;18.30;44.30;20.50;94299.00;;;;10438602;28;45729;-66
2022/05/07 20:59:58;;;;;;;2.42;1.60;;;18.30;44.40;20.50;94289.00;;;;10440031;28;45101;-65
2022/05/07 21:05:19;;;;;;;1.50;1.40;;;18.30;44.40;20.40;94293.00;;;;10439760;28;45223;-65
2022/05/07 21:10:40;;;;;;;1.55;1.38;;;18.20;44.40;20.40;94287.00;;;;10439762;28;45158;-66
2022/05/07 21:16:02;;;;;;;1.73;1.50;;;18.20;44.50;20.40;94282.00;;;;10439365;28;45271;-65
2022/05/07 21:21:23;;;;;;;1.80;1.45;;;18.20;44.50;20.40;94279.00;;;;10438345;28;45771;-65
2022/05/07 21:26:43;;;;;;;1.63;1.30;;;18.20;44.50;20.40;94280.00;;;;10438607;28;45840;-65
2022/05/07 21:32:07;;;;;;;1.80;1.40;;;18.10;44.50;20.30;94286.00;;;;10438558;28;45170;-65
2022/05/07 21:37:27;;;;;;;2.20;1.52;;;18.10;44.60;20.30;94277.00;;;;10437410;28;45112;-65
2022/05/07 21:42:48;;;;;;;1.50;1.40;;;18.10;44.60;20.30;94283.00;;;;10438055;28;45254;-65
2022/05/07 21:48:10;;;;;;;1.60;1.38;;;18.10;44.70;20.30;94300.00;;;;10437869;28;45116;-65
2022/05/07 21:53:31;;;;;;;1.80;1.48;;;18.10;44.70;20.30;94290.00;;;;10437010;28;45291;-65
2022/05/07 21:58:51;;;;;;;1.67;1.40;;;18.00;44.70;20.20;94285.00;;;;10437477;28;45341;-65
2022/05/07 22:04:14;;;;;;;1.48;1.27;;;18.00;44.70;20.20;94279.00;;;;10437537;28;45183;-65
2022/05/07 22:09:35;;;;;;;2.65;1.65;;;18.00;44.80;20.20;94274.00;;;;10436816;28;45177;-65
2022/05/07 22:14:55;;;;;;;1.42;1.30;;;18.00;44.80;20.20;94278.00;;;;10436731;28;45153;-65
2022/05/07 22:20:17;;;;;;;1.92;1.42;;;18.00;44.80;20.20;94275.00;;;;10437079;28;45945;-65
2022/05/07 22:25:38;;;;;;;1.80;1.30;;;17.90;44.80;20.10;94272.00;;;;10436934;28;45217;-66
2022/05/07 22:30:59;;;;;;;2.40;1.50;;;17.90;44.80;20.10;94276.00;;;;10436810;28;45236;-66
2022/05/07 22:36:21;;;;;;;1.55;1.30;;;17.90;44.80;20.10;94271.00;;;;10436255;28;45202;-65
2022/05/07 22:41:42;;;;;;;1.60;1.40;;;17.90;44.80;20.10;94270.00;;;;10436089;28;45694;-66
2022/05/07 22:47:03;;;;;;;1.58;1.40;;;17.90;44.80;20.10;94272.00;;;;10436508;28;45940;-65
2022/05/07 22:52:25;;;;;;;1.98;1.50;;;17.90;44.90;20.10;94270.00;;;;10436573;28;45144;-66
2022/05/07 22:57:46;;;;;;;1.33;1.20;;;17.90;44.90;20.00;94267.00;;;;10436336;28;45210;-66
2022/05/07 23:03:07;;;;;;;1.80;1.50;;;17.80;44.90;20.00;94271.00;;;;10436223;28;45673;-65
2022/05/07 23:08:29;;;;;;;1.40;1.30;;;17.80;44.90;20.00;94253.00;;;;10435959;28;45194;-65
2022/05/07 23:13:50;;;;;;;1.95;1.40;;;17.80;44.80;20.00;94258.00;;;;10436259;28;45137;-65
2022/05/07 23:19:11;;;;;;;1.60;1.40;;;17.80;44.90;20.00;94258.00;;;;10436136;28;45380;-65
2022/05/07 23:24:33;;;;;;;1.52;1.20;;;17.80;44.90;20.00;94266.00;;;;10435700;28;45700;-65
2022/05/07 23:29:53;;;;;;;1.40;1.27;;;17.80;44.90;20.00;94250.00;;;;10435666;28;45218;-65
2022/05/07 23:35:14;;;;;;;1.38;1.23;;;17.80;44.90;19.90;94264.00;;;;10435225;28;45170;-65
2022/05/07 23:40:36;;;;;;;1.65;1.30;;;17.70;44.90;19.90;94259.00;;;;10435331;28;45888;-65
2022/05/07 23:45:58;;;;;;;1.38;1.27;;;17.70;44.90;19.90;94246.00;;;;10439764;28;45198;-65
2022/05/07 23:51:18;;;;;;;1.88;1.30;;;17.70;44.90;19.90;94247.00;;;;10442276;28;45299;-65
2022/05/07 23:56:40;;;;;;;1.60;1.20;;;17.70;45.50;19.90;94248.00;;;;10441378;28;45113;-65
